createdAt,value
2022-12-18T00:00:57.403Z,19.70
2022-12-18T00:06:17.745Z,18.00
2022-12-18T00:11:23.195Z,19.70
2022-12-18T00:16:27.103Z,12.40
2022-12-18T00:21:46.469Z,20.20
2022-12-18T00:26:48.951Z,27.80
2022-12-18T00:31:51.638Z,9.20
2022-12-18T00:36:54.341Z,10.00
2022-12-18T00:41:59.838Z,27.00
2022-12-18T00:47:02.375Z,18.00
2022-12-18T00:52:05.452Z,21.20
2022-12-18T00:57:07.951Z,17.40
2022-12-18T01:02:10.608Z,20.70
2022-12-18T01:07:13.144Z,28.90
2022-12-18T01:12:15.815Z,23.40
2022-12-18T01:17:18.423Z,16.50
2022-12-18T01:22:20.949Z,20.90
2022-12-18T01:27:23.474Z,19.10
2022-12-18T01:32:25.993Z,16.50
2022-12-18T01:37:28.597Z,18.70
2022-12-18T01:42:31.140Z,28.30
2022-12-18T01:47:37.590Z,24.70
2022-12-18T01:52:43.210Z,18.30
2022-12-18T01:57:45.974Z,17.40
2022-12-18T02:02:49.035Z,24.00
2022-12-18T02:08:19.297Z,23.20
2022-12-18T02:13:33.280Z,19.70
2022-12-18T02:18:45.129Z,15.10
2022-12-18T02:23:50.539Z,16.00
2022-12-18T02:28:59.613Z,18.90
2022-12-18T02:34:05.737Z,16.10
2022-12-18T02:39:09.952Z,16.20
2022-12-18T02:44:14.522Z,16.00
2022-12-18T02:49:23.072Z,16.60
2022-12-18T02:54:32.499Z,19.20
2022-12-18T02:59:43.968Z,20.70
2022-12-18T03:04:55.482Z,9.20
2022-12-18T03:09:59.092Z,10.40
2022-12-18T03:15:15.939Z,11.30
2022-12-18T03:20:22.994Z,11.80
2022-12-18T03:25:27.653Z,20.40
2022-12-18T03:30:34.855Z,14.50
2022-12-18T03:35:41.127Z,15.60
2022-12-18T03:40:51.851Z,16.00
2022-12-18T03:46:03.878Z,17.80
2022-12-18T03:51:10.964Z,20.10
2022-12-18T03:56:17.092Z,16.60
2022-12-18T04:01:21.899Z,17.50
2022-12-18T04:06:24.556Z,20.20
2022-12-18T04:11:27.316Z,21.40
2022-12-18T04:16:30.103Z,21.20
2022-12-18T04:21:32.581Z,24.40
2022-12-18T04:26:35.193Z,19.40
2022-12-18T04:31:37.878Z,22.10
2022-12-18T04:36:40.402Z,19.80
2022-12-18T04:41:42.863Z,25.60
2022-12-18T04:46:45.434Z,24.70
2022-12-18T04:51:48.000Z,29.50
2022-12-18T04:56:50.543Z,33.70
2022-12-18T05:01:53.241Z,32.70
2022-12-18T05:06:55.868Z,28.80
2022-12-18T05:11:58.344Z,38.00
2022-12-18T05:17:01.408Z,34.50
2022-12-18T05:22:04.039Z,35.90
2022-12-18T05:27:06.566Z,38.20
2022-12-18T05:32:09.035Z,36.00
2022-12-18T05:37:11.526Z,42.40
2022-12-18T05:42:13.996Z,40.20
2022-12-18T05:47:16.747Z,47.40
2022-12-18T05:52:19.307Z,34.50
2022-12-18T05:57:21.823Z,23.00
2022-12-18T06:02:24.430Z,30.20
2022-12-18T06:07:27.141Z,20.60
2022-12-18T06:12:29.615Z,16.90
2022-12-18T06:17:33.494Z,20.60
2022-12-18T06:22:36.096Z,23.10
2022-12-18T06:27:38.653Z,43.60
2022-12-18T06:32:41.231Z,57.30
2022-12-18T06:37:43.736Z,52.10
2022-12-18T06:42:46.434Z,54.10
2022-12-18T06:47:48.889Z,43.10
2022-12-18T06:52:51.403Z,27.70
2022-12-18T06:57:53.932Z,32.80
2022-12-18T07:02:56.461Z,47.40
2022-12-18T07:07:59.707Z,19.90
2022-12-18T07:13:02.183Z,35.40
2022-12-18T07:18:04.794Z,37.10
2022-12-18T07:23:07.612Z,17.50
2022-12-18T07:28:15.627Z,35.40
2022-12-18T07:33:19.760Z,28.60
2022-12-18T07:38:22.951Z,34.30
2022-12-18T07:43:25.398Z,34.80
2022-12-18T07:48:29.425Z,35.00
2022-12-18T07:53:33.337Z,43.90
2022-12-18T07:58:36.533Z,36.20
2022-12-18T08:03:40.983Z,35.00
2022-12-18T08:13:47.662Z,19.10
2022-12-18T08:18:50.632Z,25.80
2022-12-18T08:23:54.854Z,14.80
2022-12-18T08:28:59.457Z,49.60
2022-12-18T08:34:02.007Z,54.40
2022-12-18T08:39:04.520Z,38.50
2022-12-18T08:44:11.542Z,32.10
2022-12-18T08:49:14.238Z,41.50
2022-12-18T08:54:16.702Z,19.90
2022-12-18T08:59:20.786Z,24.80
2022-12-18T09:04:23.558Z,59.50
2022-12-18T09:09:26.048Z,46.50
2022-12-18T09:14:28.550Z,60.50
2022-12-18T09:19:31.241Z,56.10
2022-12-18T09:24:33.782Z,58.00
2022-12-18T09:29:36.242Z,69.30
2022-12-18T09:34:38.729Z,75.80
2022-12-18T09:39:41.210Z,95.60
2022-12-18T09:44:48.935Z,67.30
2022-12-18T09:49:57.409Z,53.10
2022-12-18T09:55:05.804Z,55.80
2022-12-18T10:00:19.573Z,52.30
2022-12-18T10:05:34.934Z,56.20
2022-12-18T10:10:49.696Z,47.00
2022-12-18T10:15:59.372Z,59.00
2022-12-18T10:21:12.769Z,46.90
2022-12-18T10:26:15.421Z,60.60
2022-12-18T10:31:24.758Z,61.90
2022-12-18T10:36:27.720Z,44.80
2022-12-18T10:41:31.824Z,60.40
2022-12-18T10:46:34.464Z,52.40
2022-12-18T10:51:38.622Z,58.70
2022-12-18T10:56:41.678Z,62.90
2022-12-18T11:01:50.452Z,61.80
2022-12-18T11:06:54.784Z,66.20
2022-12-18T11:12:00.436Z,57.10
2022-12-18T11:17:25.428Z,57.80
2022-12-18T11:22:32.316Z,46.00
2022-12-18T11:27:34.827Z,55.90
2022-12-18T11:32:40.284Z,65.30
2022-12-18T11:37:47.064Z,61.10
2022-12-18T11:42:55.668Z,59.20
2022-12-18T11:48:01.393Z,59.10
2022-12-18T11:53:06.265Z,69.00
2022-12-18T11:58:18.275Z,66.00
2022-12-18T12:03:40.111Z,62.90
2022-12-18T12:08:57.268Z,75.30
2022-12-18T12:14:02.663Z,77.90
2022-12-18T12:19:08.074Z,60.00
2022-12-18T12:24:10.500Z,68.40
2022-12-18T12:29:21.299Z,76.60
2022-12-18T12:34:35.579Z,75.40
2022-12-18T12:39:41.635Z,77.70
2022-12-18T12:44:56.209Z,57.50
2022-12-18T12:50:08.089Z,73.00
2022-12-18T12:55:16.951Z,61.00
2022-12-18T13:00:20.965Z,78.70
2022-12-18T13:05:30.029Z,61.10
2022-12-18T13:10:34.008Z,57.00
2022-12-18T13:15:41.969Z,70.80
2022-12-18T13:20:53.715Z,62.40
2022-12-18T13:26:28.146Z,73.40
2022-12-18T13:31:37.514Z,78.00
2022-12-18T13:36:40.418Z,63.30
2022-12-18T13:41:43.637Z,42.30
2022-12-18T13:46:47.799Z,72.60
2022-12-18T13:51:52.700Z,73.30
2022-12-18T13:56:55.655Z,64.10
2022-12-18T14:02:02.996Z,66.50
2022-12-18T14:07:11.598Z,71.80
2022-12-18T14:12:25.648Z,73.70
2022-12-18T14:17:28.485Z,64.80
2022-12-18T14:22:31.754Z,44.70
2022-12-18T14:27:39.854Z,55.70
2022-12-18T14:32:42.328Z,71.30
2022-12-18T14:37:44.811Z,35.10
2022-12-18T14:42:47.378Z,56.90
2022-12-18T14:47:49.874Z,52.00
2022-12-18T14:52:53.335Z,75.10
2022-12-18T14:57:57.199Z,74.40
2022-12-18T15:02:59.841Z,49.80
2022-12-18T15:08:03.521Z,19.00
2022-12-18T15:13:06.319Z,37.00
2022-12-18T15:18:08.760Z,74.40
2022-12-18T15:23:16.080Z,51.00
2022-12-18T15:28:24.662Z,56.40
2022-12-18T15:33:31.937Z,49.00
2022-12-18T15:38:34.462Z,66.40
2022-12-18T15:43:39.151Z,78.50
2022-12-18T15:48:45.799Z,82.70
2022-12-18T15:53:51.097Z,79.50
2022-12-18T15:58:53.585Z,74.90
2022-12-18T16:03:57.033Z,64.10
2022-12-18T16:08:59.774Z,51.30
2022-12-18T16:14:02.314Z,93.30
2022-12-18T16:19:05.029Z,77.50
2022-12-18T16:24:15.796Z,63.70
2022-12-18T16:29:19.208Z,59.90
2022-12-18T16:34:28.755Z,65.90
2022-12-18T16:39:31.758Z,56.80
2022-12-18T16:44:34.827Z,79.40
2022-12-18T16:49:38.454Z,61.30
2022-12-18T16:54:40.964Z,63.40
2022-12-18T16:59:43.800Z,48.20
2022-12-18T17:04:47.309Z,58.80
2022-12-18T17:09:52.005Z,73.00
2022-12-18T17:14:54.512Z,73.00
2022-12-18T17:19:57.076Z,58.70
2022-12-18T17:24:59.573Z,63.50
2022-12-18T17:30:02.582Z,54.50
2022-12-18T17:35:07.373Z,40.90
2022-12-18T17:40:10.576Z,44.70
2022-12-18T17:45:13.046Z,51.80
2022-12-18T17:50:15.690Z,41.90
2022-12-18T17:55:18.319Z,37.60
2022-12-18T18:01:38.518Z,47.00
2022-12-18T18:06:53.182Z,63.20
2022-12-18T18:11:58.655Z,51.80
2022-12-18T18:17:04.664Z,49.30
2022-12-18T18:27:10.383Z,40.00
2022-12-18T18:32:12.998Z,49.20
2022-12-18T18:37:15.475Z,47.60
2022-12-18T18:42:17.942Z,45.20
2022-12-18T18:47:20.948Z,51.40
2022-12-18T18:52:23.590Z,67.30
2022-12-18T18:57:30.294Z,63.10
2022-12-18T19:02:33.364Z,86.00
2022-12-18T19:07:36.025Z,80.70
2022-12-18T19:12:41.517Z,106.20
2022-12-18T19:17:46.951Z,118.40
2022-12-18T19:22:54.988Z,103.70
2022-12-18T19:27:58.323Z,131.00
2022-12-18T19:33:09.756Z,75.70
2022-12-18T19:38:23.271Z,62.40
2022-12-18T19:43:25.921Z,60.10
2022-12-18T19:48:29.243Z,56.00
2022-12-18T19:53:32.031Z,77.90
2022-12-18T19:58:35.140Z,69.60
2022-12-18T20:03:37.925Z,59.50
2022-12-18T20:08:41.480Z,55.00
2022-12-18T20:13:44.842Z,55.80
2022-12-18T20:18:49.064Z,53.80
2022-12-18T20:23:52.458Z,42.90
2022-12-18T20:28:55.801Z,52.80
2022-12-18T20:34:01.484Z,58.20
2022-12-18T20:39:06.541Z,55.50
2022-12-18T20:44:21.772Z,47.80
2022-12-18T20:49:27.310Z,32.70
2022-12-18T20:54:29.969Z,38.90
2022-12-18T20:59:32.647Z,50.90
2022-12-18T21:04:35.141Z,49.90
2022-12-18T21:09:38.650Z,46.10
2022-12-18T21:14:42.816Z,47.00
2022-12-18T21:19:45.278Z,50.00
2022-12-18T21:24:48.899Z,52.80
2022-12-18T21:29:52.247Z,44.30
2022-12-18T21:34:55.235Z,73.60
2022-12-18T21:39:57.725Z,52.20
2022-12-18T21:45:00.372Z,54.80
2022-12-18T21:50:03.143Z,38.80
2022-12-18T21:55:09.341Z,48.80
2022-12-18T22:00:18.752Z,44.40
2022-12-18T22:05:22.326Z,54.20
2022-12-18T22:10:24.795Z,53.70
2022-12-18T22:15:27.349Z,46.50
2022-12-18T22:20:30.270Z,48.50
2022-12-18T22:25:33.988Z,41.90
2022-12-18T22:30:37.706Z,44.50
2022-12-18T22:35:40.261Z,40.10
2022-12-18T22:40:43.625Z,58.20
2022-12-18T22:45:47.263Z,46.70
2022-12-18T22:50:49.865Z,47.10
2022-12-18T22:56:00.463Z,40.00
2022-12-18T23:01:03.046Z,35.90
2022-12-18T23:06:06.977Z,34.80
2022-12-18T23:11:10.700Z,48.00
2022-12-18T23:16:16.413Z,53.50
2022-12-18T23:21:20.644Z,57.50
2022-12-18T23:26:25.396Z,50.90
2022-12-18T23:31:30.633Z,53.80
2022-12-18T23:36:43.883Z,66.40
2022-12-18T23:41:49.187Z,72.30
2022-12-18T23:46:51.800Z,71.80
2022-12-18T23:51:55.031Z,93.50
2022-12-18T23:56:57.544Z,67.70
